sensor_id;sensor_type;location;lat;lon;timestamp;P1;durP1;ratioP1;P2;durP2;ratioP2
9138;SDS011;4604;48.616;9.548;2023-07-31T00:02:26;4.13;;;1.80;;
9138;SDS011;4604;48.616;9.548;2023-07-31T00:04:53;2.70;;;1.73;;
9138;SDS011;4604;48.616;9.548;2023-07-31T00:07:21;1.65;;;1.48;;
9138;SDS011;4604;48.616;9.548;2023-07-31T00:09:47;4.07;;;1.70;;
9138;SDS011;4604;48.616;9.548;2023-07-31T00:12:14;3.23;;;1.93;;
9138;SDS011;4604;48.616;9.548;2023-07-31T00:14:41;5.33;;;2.00;;
9138;SDS011;4604;48.616;9.548;2023-07-31T00:17:08;3.20;;;1.60;;
9138;SDS011;4604;48.616;9.548;2023-07-31T00:19:35;3.83;;;1.70;;
9138;SDS011;4604;48.616;9.548;2023-07-31T00:22:01;3.43;;;1.90;;
9138;SDS011;4604;48.616;9.548;2023-07-31T00:24:29;2.33;;;1.80;;
9138;SDS011;4604;48.616;9.548;2023-07-31T00:26:56;4.53;;;2.20;;
9138;SDS011;4604;48.616;9.548;2023-07-31T00:29:23;2.73;;;1.80;;
9138;SDS011;4604;48.616;9.548;2023-07-31T00:31:51;2.40;;;1.90;;
9138;SDS011;4604;48.616;9.548;2023-07-31T00:34:18;3.65;;;1.73;;
9138;SDS011;4604;48.616;9.548;2023-07-31T00:36:45;6.30;;;1.80;;
9138;SDS011;4604;48.616;9.548;2023-07-31T00:39:11;2.53;;;2.00;;
9138;SDS011;4604;48.616;9.548;2023-07-31T00:41:40;1.52;;;1.42;;
9138;SDS011;4604;48.616;9.548;2023-07-31T00:44:08;2.83;;;1.80;;
9138;SDS011;4604;48.616;9.548;2023-07-31T00:46:34;3.58;;;1.80;;
9138;SDS011;4604;48.616;9.548;2023-07-31T00:49:01;3.13;;;1.90;;
9138;SDS011;4604;48.616;9.548;2023-07-31T00:51:28;2.83;;;1.80;;
9138;SDS011;4604;48.616;9.548;2023-07-31T00:53:54;4.03;;;2.00;;
9138;SDS011;4604;48.616;9.548;2023-07-31T00:56:22;3.10;;;1.70;;
9138;SDS011;4604;48.616;9.548;2023-07-31T00:58:51;1.88;;;1.70;;
9138;SDS011;4604;48.616;9.548;2023-07-31T01:01:18;4.77;;;2.20;;
9138;SDS011;4604;48.616;9.548;2023-07-31T01:03:44;2.58;;;1.67;;
9138;SDS011;4604;48.616;9.548;2023-07-31T01:06:14;3.72;;;1.95;;
9138;SDS011;4604;48.616;9.548;2023-07-31T01:08:47;3.05;;;1.90;;
9138;SDS011;4604;48.616;9.548;2023-07-31T01:11:22;2.20;;;1.80;;
9138;SDS011;4604;48.616;9.548;2023-07-31T01:13:55;3.13;;;1.60;;
9138;SDS011;4604;48.616;9.548;2023-07-31T01:16:22;2.42;;;1.70;;
9138;SDS011;4604;48.616;9.548;2023-07-31T01:18:49;2.07;;;1.60;;
9138;SDS011;4604;48.616;9.548;2023-07-31T01:21:20;3.45;;;1.80;;
9138;SDS011;4604;48.616;9.548;2023-07-31T01:24:14;2.72;;;2.10;;
9138;SDS011;4604;48.616;9.548;2023-07-31T01:26:51;3.67;;;2.03;;
9138;SDS011;4604;48.616;9.548;2023-07-31T01:29:23;3.80;;;1.70;;
9138;SDS011;4604;48.616;9.548;2023-07-31T01:31:59;2.75;;;1.92;;
9138;SDS011;4604;48.616;9.548;2023-07-31T01:34:28;5.97;;;1.98;;
9138;SDS011;4604;48.616;9.548;2023-07-31T01:36:56;4.47;;;1.80;;
9138;SDS011;4604;48.616;9.548;2023-07-31T01:39:23;2.08;;;1.70;;
9138;SDS011;4604;48.616;9.548;2023-07-31T01:41:51;1.98;;;1.83;;
9138;SDS011;4604;48.616;9.548;2023-07-31T01:44:18;4.25;;;2.00;;
9138;SDS011;4604;48.616;9.548;2023-07-31T01:46:45;3.43;;;1.90;;
9138;SDS011;4604;48.616;9.548;2023-07-31T01:49:11;1.67;;;1.40;;
9138;SDS011;4604;48.616;9.548;2023-07-31T01:51:38;3.53;;;1.88;;
9138;SDS011;4604;48.616;9.548;2023-07-31T01:54:05;2.45;;;1.67;;
9138;SDS011;4604;48.616;9.548;2023-07-31T01:56:31;3.00;;;1.88;;
9138;SDS011;4604;48.616;9.548;2023-07-31T01:58:59;3.97;;;2.00;;
9138;SDS011;4604;48.616;9.548;2023-07-31T02:01:26;2.85;;;1.80;;
9138;SDS011;4604;48.616;9.548;2023-07-31T02:03:52;2.70;;;2.00;;
9138;SDS011;4604;48.616;9.548;2023-07-31T02:06:19;3.43;;;2.00;;
9138;SDS011;4604;48.616;9.548;2023-07-31T02:08:47;2.13;;;1.63;;
9138;SDS011;4604;48.616;9.548;2023-07-31T02:11:14;3.25;;;1.80;;
9138;SDS011;4604;48.616;9.548;2023-07-31T02:13:41;2.65;;;2.00;;
9138;SDS011;4604;48.616;9.548;2023-07-31T02:16:09;12.65;;;1.83;;
9138;SDS011;4604;48.616;9.548;2023-07-31T02:18:35;1.90;;;1.70;;
9138;SDS011;4604;48.616;9.548;2023-07-31T02:21:02;3.72;;;2.15;;
9138;SDS011;4604;48.616;9.548;2023-07-31T02:23:29;3.42;;;2.00;;
9138;SDS011;4604;48.616;9.548;2023-07-31T02:25:55;2.65;;;1.80;;
9138;SDS011;4604;48.616;9.548;2023-07-31T02:28:22;1.77;;;1.67;;
9138;SDS011;4604;48.616;9.548;2023-07-31T02:30:50;2.27;;;2.00;;
9138;SDS011;4604;48.616;9.548;2023-07-31T02:33:18;3.50;;;1.92;;
9138;SDS011;4604;48.616;9.548;2023-07-31T02:35:45;2.78;;;1.75;;
9138;SDS011;4604;48.616;9.548;2023-07-31T02:38:12;2.10;;;1.80;;
9138;SDS011;4604;48.616;9.548;2023-07-31T02:40:39;4.70;;;2.30;;
9138;SDS011;4604;48.616;9.548;2023-07-31T02:43:06;6.72;;;2.00;;
9138;SDS011;4604;48.616;9.548;2023-07-31T02:45:33;6.25;;;2.65;;
9138;SDS011;4604;48.616;9.548;2023-07-31T02:47:59;4.10;;;2.10;;
9138;SDS011;4604;48.616;9.548;2023-07-31T02:50:28;4.22;;;2.30;;
9138;SDS011;4604;48.616;9.548;2023-07-31T02:52:54;5.47;;;2.22;;
9138;SDS011;4604;48.616;9.548;2023-07-31T02:55:21;3.13;;;2.00;;
9138;SDS011;4604;48.616;9.548;2023-07-31T02:57:48;3.53;;;1.90;;
9138;SDS011;4604;48.616;9.548;2023-07-31T03:00:14;4.93;;;2.17;;
9138;SDS011;4604;48.616;9.548;2023-07-31T03:02:41;2.90;;;2.07;;
9138;SDS011;4604;48.616;9.548;2023-07-31T03:05:08;4.00;;;2.28;;
9138;SDS011;4604;48.616;9.548;2023-07-31T03:07:36;4.50;;;2.50;;
9138;SDS011;4604;48.616;9.548;2023-07-31T03:10:03;2.83;;;1.98;;
9138;SDS011;4604;48.616;9.548;2023-07-31T03:12:30;4.70;;;2.00;;
9138;SDS011;4604;48.616;9.548;2023-07-31T03:14:57;6.37;;;2.67;;
9138;SDS011;4604;48.616;9.548;2023-07-31T03:17:23;4.03;;;2.17;;
9138;SDS011;4604;48.616;9.548;2023-07-31T03:19:50;2.67;;;2.17;;
9138;SDS011;4604;48.616;9.548;2023-07-31T03:22:17;3.03;;;2.05;;
9138;SDS011;4604;48.616;9.548;2023-07-31T03:24:45;6.53;;;2.00;;
9138;SDS011;4604;48.616;9.548;2023-07-31T03:27:11;4.93;;;1.67;;
9138;SDS011;4604;48.616;9.548;2023-07-31T03:29:38;5.25;;;2.05;;
9138;SDS011;4604;48.616;9.548;2023-07-31T03:32:05;4.17;;;1.90;;
9138;SDS011;4604;48.616;9.548;2023-07-31T03:34:32;4.20;;;2.10;;
9138;SDS011;4604;48.616;9.548;2023-07-31T03:36:59;3.77;;;2.10;;
9138;SDS011;4604;48.616;9.548;2023-07-31T03:39:25;2.13;;;1.90;;
9138;SDS011;4604;48.616;9.548;2023-07-31T03:41:53;2.20;;;2.00;;
9138;SDS011;4604;48.616;9.548;2023-07-31T03:44:20;4.10;;;2.27;;
9138;SDS011;4604;48.616;9.548;2023-07-31T03:46:47;2.30;;;1.90;;
9138;SDS011;4604;48.616;9.548;2023-07-31T03:49:13;5.43;;;2.27;;
9138;SDS011;4604;48.616;9.548;2023-07-31T03:51:40;4.07;;;2.40;;
9138;SDS011;4604;48.616;9.548;2023-07-31T03:54:07;3.37;;;2.00;;
9138;SDS011;4604;48.616;9.548;2023-07-31T03:56:34;4.17;;;2.13;;
9138;SDS011;4604;48.616;9.548;2023-07-31T03:59:02;4.60;;;2.27;;
9138;SDS011;4604;48.616;9.548;2023-07-31T04:01:29;3.67;;;2.07;;
9138;SDS011;4604;48.616;9.548;2023-07-31T04:03:55;8.47;;;2.50;;
9138;SDS011;4604;48.616;9.548;2023-07-31T04:06:22;3.13;;;2.00;;
9138;SDS011;4604;48.616;9.548;2023-07-31T04:08:49;2.70;;;1.93;;
9138;SDS011;4604;48.616;9.548;2023-07-31T04:11:15;3.90;;;1.97;;
9138;SDS011;4604;48.616;9.548;2023-07-31T04:13:42;4.77;;;2.17;;
9138;SDS011;4604;48.616;9.548;2023-07-31T04:16:10;2.83;;;1.90;;
9138;SDS011;4604;48.616;9.548;2023-07-31T04:18:37;2.80;;;1.90;;
9138;SDS011;4604;48.616;9.548;2023-07-31T04:21:04;3.43;;;2.00;;
9138;SDS011;4604;48.616;9.548;2023-07-31T04:23:30;3.80;;;2.20;;
9138;SDS011;4604;48.616;9.548;2023-07-31T04:25:57;2.67;;;1.93;;
9138;SDS011;4604;48.616;9.548;2023-07-31T04:28:24;2.73;;;2.03;;
9138;SDS011;4604;48.616;9.548;2023-07-31T04:30:51;2.83;;;2.00;;
9138;SDS011;4604;48.616;9.548;2023-07-31T04:33:19;2.33;;;1.80;;
9138;SDS011;4604;48.616;9.548;2023-07-31T04:35:48;2.03;;;1.83;;
9138;SDS011;4604;48.616;9.548;2023-07-31T04:38:17;2.73;;;2.00;;
9138;SDS011;4604;48.616;9.548;2023-07-31T04:40:44;6.13;;;2.13;;
9138;SDS011;4604;48.616;9.548;2023-07-31T04:43:10;2.45;;;1.90;;
9138;SDS011;4604;48.616;9.548;2023-07-31T04:45:37;3.10;;;2.08;;
9138;SDS011;4604;48.616;9.548;2023-07-31T04:48:04;2.67;;;1.97;;
9138;SDS011;4604;48.616;9.548;2023-07-31T04:50:32;3.70;;;2.10;;
9138;SDS011;4604;48.616;9.548;2023-07-31T04:52:59;2.80;;;2.17;;
9138;SDS011;4604;48.616;9.548;2023-07-31T04:55:25;3.28;;;1.70;;
9138;SDS011;4604;48.616;9.548;2023-07-31T04:57:52;5.73;;;2.30;;
9138;SDS011;4604;48.616;9.548;2023-07-31T05:00:19;2.35;;;2.13;;
9138;SDS011;4604;48.616;9.548;2023-07-31T05:02:46;3.70;;;2.07;;
9138;SDS011;4604;48.616;9.548;2023-07-31T05:05:13;3.60;;;2.20;;
9138;SDS011;4604;48.616;9.548;2023-07-31T05:07:41;3.15;;;1.98;;
9138;SDS011;4604;48.616;9.548;2023-07-31T05:10:08;4.70;;;1.77;;
9138;SDS011;4604;48.616;9.548;2023-07-31T05:12:35;2.15;;;1.75;;
9138;SDS011;4604;48.616;9.548;2023-07-31T05:15:01;3.35;;;1.98;;
9138;SDS011;4604;48.616;9.548;2023-07-31T05:17:28;4.07;;;2.28;;
9138;SDS011;4604;48.616;9.548;2023-07-31T05:19:55;3.60;;;2.17;;
9138;SDS011;4604;48.616;9.548;2023-07-31T05:22:22;2.20;;;1.80;;
9138;SDS011;4604;48.616;9.548;2023-07-31T05:24:50;2.38;;;1.60;;
9138;SDS011;4604;48.616;9.548;2023-07-31T05:27:16;1.85;;;1.63;;
9138;SDS011;4604;48.616;9.548;2023-07-31T05:29:43;3.58;;;2.30;;
9138;SDS011;4604;48.616;9.548;2023-07-31T05:32:10;2.50;;;1.98;;
9138;SDS011;4604;48.616;9.548;2023-07-31T05:34:37;2.30;;;2.10;;
9138;SDS011;4604;48.616;9.548;2023-07-31T05:37:04;4.53;;;1.90;;
9138;SDS011;4604;48.616;9.548;2023-07-31T05:39:32;2.85;;;2.05;;
9138;SDS011;4604;48.616;9.548;2023-07-31T05:42:00;3.10;;;1.90;;
9138;SDS011;4604;48.616;9.548;2023-07-31T05:44:26;2.85;;;1.98;;
9138;SDS011;4604;48.616;9.548;2023-07-31T05:46:53;3.35;;;2.28;;
9138;SDS011;4604;48.616;9.548;2023-07-31T05:49:19;3.38;;;2.00;;
9138;SDS011;4604;48.616;9.548;2023-07-31T05:51:46;2.47;;;2.20;;
9138;SDS011;4604;48.616;9.548;2023-07-31T05:54:13;4.85;;;2.25;;
9138;SDS011;4604;48.616;9.548;2023-07-31T05:56:39;3.45;;;2.00;;
9138;SDS011;4604;48.616;9.548;2023-07-31T05:59:08;2.83;;;2.03;;
9138;SDS011;4604;48.616;9.548;2023-07-31T06:01:35;2.83;;;2.08;;
9138;SDS011;4604;48.616;9.548;2023-07-31T06:04:01;2.63;;;1.83;;
9138;SDS011;4604;48.616;9.548;2023-07-31T06:06:28;3.35;;;2.30;;
9138;SDS011;4604;48.616;9.548;2023-07-31T06:08:55;4.07;;;2.13;;
9138;SDS011;4604;48.616;9.548;2023-07-31T06:11:24;4.35;;;2.30;;
9138;SDS011;4604;48.616;9.548;2023-07-31T06:13:50;2.63;;;1.85;;
9138;SDS011;4604;48.616;9.548;2023-07-31T06:16:18;3.03;;;1.85;;
9138;SDS011;4604;48.616;9.548;2023-07-31T06:18:49;2.95;;;1.85;;
9138;SDS011;4604;48.616;9.548;2023-07-31T06:21:18;3.88;;;1.90;;
9138;SDS011;4604;48.616;9.548;2023-07-31T06:23:44;2.60;;;1.90;;
9138;SDS011;4604;48.616;9.548;2023-07-31T06:26:11;2.83;;;1.80;;
9138;SDS011;4604;48.616;9.548;2023-07-31T06:28:38;1.75;;;1.60;;
9138;SDS011;4604;48.616;9.548;2023-07-31T06:31:04;4.20;;;2.03;;
9138;SDS011;4604;48.616;9.548;2023-07-31T06:33:32;4.95;;;2.30;;
9138;SDS011;4604;48.616;9.548;2023-07-31T06:35:59;2.08;;;1.58;;
9138;SDS011;4604;48.616;9.548;2023-07-31T06:38:26;3.63;;;1.80;;
9138;SDS011;4604;48.616;9.548;2023-07-31T06:40:53;2.85;;;1.70;;
9138;SDS011;4604;48.616;9.548;2023-07-31T06:43:20;3.17;;;1.83;;
9138;SDS011;4604;48.616;9.548;2023-07-31T06:45:47;3.60;;;1.90;;
9138;SDS011;4604;48.616;9.548;2023-07-31T06:48:16;2.25;;;1.67;;
9138;SDS011;4604;48.616;9.548;2023-07-31T06:50:44;3.55;;;2.10;;
9138;SDS011;4604;48.616;9.548;2023-07-31T06:53:11;4.93;;;2.22;;
9138;SDS011;4604;48.616;9.548;2023-07-31T06:55:37;2.42;;;2.00;;
9138;SDS011;4604;48.616;9.548;2023-07-31T06:58:04;3.03;;;1.75;;
9138;SDS011;4604;48.616;9.548;2023-07-31T07:00:31;3.40;;;1.80;;
9138;SDS011;4604;48.616;9.548;2023-07-31T07:02:58;3.30;;;1.90;;
9138;SDS011;4604;48.616;9.548;2023-07-31T07:05:25;3.50;;;1.90;;
9138;SDS011;4604;48.616;9.548;2023-07-31T07:07:53;1.70;;;1.58;;
9138;SDS011;4604;48.616;9.548;2023-07-31T07:10:23;2.03;;;1.83;;
9138;SDS011;4604;48.616;9.548;2023-07-31T07:12:49;4.15;;;2.00;;
9138;SDS011;4604;48.616;9.548;2023-07-31T07:15:16;3.72;;;1.98;;
9138;SDS011;4604;48.616;9.548;2023-07-31T07:17:43;5.72;;;1.98;;
9138;SDS011;4604;48.616;9.548;2023-07-31T07:20:10;3.47;;;2.20;;
9138;SDS011;4604;48.616;9.548;2023-07-31T07:22:36;2.45;;;1.70;;
9138;SDS011;4604;48.616;9.548;2023-07-31T07:25:05;6.68;;;2.15;;
9138;SDS011;4604;48.616;9.548;2023-07-31T07:27:32;3.05;;;1.88;;
9138;SDS011;4604;48.616;9.548;2023-07-31T07:29:59;2.13;;;1.70;;
9138;SDS011;4604;48.616;9.548;2023-07-31T07:32:26;4.35;;;2.22;;
9138;SDS011;4604;48.616;9.548;2023-07-31T07:34:52;2.75;;;1.98;;
9138;SDS011;4604;48.616;9.548;2023-07-31T07:37:19;3.42;;;2.00;;
9138;SDS011;4604;48.616;9.548;2023-07-31T07:39:46;4.53;;;1.90;;
9138;SDS011;4604;48.616;9.548;2023-07-31T07:42:14;2.85;;;1.63;;
9138;SDS011;4604;48.616;9.548;2023-07-31T07:44:40;4.25;;;1.98;;
9138;SDS011;4604;48.616;9.548;2023-07-31T07:47:07;4.18;;;2.13;;
9138;SDS011;4604;48.616;9.548;2023-07-31T07:49:36;2.67;;;1.80;;
9138;SDS011;4604;48.616;9.548;2023-07-31T07:52:03;2.78;;;2.00;;
9138;SDS011;4604;48.616;9.548;2023-07-31T07:54:31;4.75;;;2.45;;
9138;SDS011;4604;48.616;9.548;2023-07-31T07:56:57;2.60;;;1.90;;
9138;SDS011;4604;48.616;9.548;2023-07-31T07:59:26;2.13;;;1.80;;
9138;SDS011;4604;48.616;9.548;2023-07-31T08:01:53;4.10;;;2.05;;
9138;SDS011;4604;48.616;9.548;2023-07-31T08:04:20;3.97;;;2.50;;
9138;SDS011;4604;48.616;9.548;2023-07-31T08:06:46;3.40;;;2.28;;
9138;SDS011;4604;48.616;9.548;2023-07-31T08:09:13;9.52;;;2.78;;
9138;SDS011;4604;48.616;9.548;2023-07-31T08:11:40;8.32;;;2.30;;
9138;SDS011;4604;48.616;9.548;2023-07-31T08:14:06;4.05;;;1.83;;
9138;SDS011;4604;48.616;9.548;2023-07-31T08:16:34;4.30;;;2.13;;
9138;SDS011;4604;48.616;9.548;2023-07-31T08:19:01;3.80;;;2.00;;
9138;SDS011;4604;48.616;9.548;2023-07-31T08:21:28;5.30;;;2.20;;
9138;SDS011;4604;48.616;9.548;2023-07-31T08:23:55;4.13;;;2.22;;
9138;SDS011;4604;48.616;9.548;2023-07-31T08:26:21;5.63;;;2.10;;
9138;SDS011;4604;48.616;9.548;2023-07-31T08:28:48;4.57;;;2.15;;
9138;SDS011;4604;48.616;9.548;2023-07-31T08:31:14;5.05;;;2.17;;
9138;SDS011;4604;48.616;9.548;2023-07-31T08:33:42;2.28;;;1.75;;
9138;SDS011;4604;48.616;9.548;2023-07-31T08:36:09;4.10;;;2.65;;
9138;SDS011;4604;48.616;9.548;2023-07-31T08:38:36;4.97;;;2.10;;
9138;SDS011;4604;48.616;9.548;2023-07-31T08:41:03;2.88;;;1.90;;
9138;SDS011;4604;48.616;9.548;2023-07-31T08:43:30;3.80;;;2.00;;
9138;SDS011;4604;48.616;9.548;2023-07-31T08:45:58;6.35;;;2.25;;
9138;SDS011;4604;48.616;9.548;2023-07-31T08:48:25;3.83;;;2.40;;
9138;SDS011;4604;48.616;9.548;2023-07-31T08:50:55;5.22;;;2.25;;
9138;SDS011;4604;48.616;9.548;2023-07-31T08:53:22;2.72;;;2.00;;
9138;SDS011;4604;48.616;9.548;2023-07-31T08:55:49;5.22;;;2.28;;
9138;SDS011;4604;48.616;9.548;2023-07-31T08:58:16;9.70;;;2.47;;
9138;SDS011;4604;48.616;9.548;2023-07-31T09:00:43;3.88;;;2.40;;
9138;SDS011;4604;48.616;9.548;2023-07-31T09:03:13;5.95;;;2.38;;
9138;SDS011;4604;48.616;9.548;2023-07-31T09:05:42;5.60;;;2.15;;
9138;SDS011;4604;48.616;9.548;2023-07-31T09:08:11;3.78;;;2.10;;
9138;SDS011;4604;48.616;9.548;2023-07-31T09:10:40;3.88;;;2.13;;
9138;SDS011;4604;48.616;9.548;2023-07-31T09:13:07;3.83;;;2.38;;
9138;SDS011;4604;48.616;9.548;2023-07-31T09:15:35;4.03;;;2.45;;
9138;SDS011;4604;48.616;9.548;2023-07-31T09:18:02;3.38;;;2.40;;
9138;SDS011;4604;48.616;9.548;2023-07-31T09:20:30;6.65;;;2.47;;
9138;SDS011;4604;48.616;9.548;2023-07-31T09:23:04;3.80;;;2.13;;
9138;SDS011;4604;48.616;9.548;2023-07-31T09:25:33;4.10;;;2.28;;
9138;SDS011;4604;48.616;9.548;2023-07-31T09:28:00;6.35;;;2.22;;
9138;SDS011;4604;48.616;9.548;2023-07-31T09:30:28;3.95;;;2.33;;
9138;SDS011;4604;48.616;9.548;2023-07-31T09:33:00;4.13;;;2.35;;
9138;SDS011;4604;48.616;9.548;2023-07-31T09:35:28;6.20;;;2.70;;
9138;SDS011;4604;48.616;9.548;2023-07-31T09:37:57;7.38;;;2.40;;
9138;SDS011;4604;48.616;9.548;2023-07-31T09:40:26;4.18;;;2.03;;
9138;SDS011;4604;48.616;9.548;2023-07-31T09:42:57;5.38;;;2.50;;
9138;SDS011;4604;48.616;9.548;2023-07-31T09:45:24;3.13;;;2.03;;
9138;SDS011;4604;48.616;9.548;2023-07-31T09:47:51;6.10;;;2.58;;
9138;SDS011;4604;48.616;9.548;2023-07-31T09:50:19;3.63;;;1.83;;
9138;SDS011;4604;48.616;9.548;2023-07-31T09:52:47;5.60;;;2.40;;
9138;SDS011;4604;48.616;9.548;2023-07-31T09:55:13;5.07;;;2.20;;
9138;SDS011;4604;48.616;9.548;2023-07-31T09:57:40;3.55;;;2.22;;
9138;SDS011;4604;48.616;9.548;2023-07-31T10:00:12;3.58;;;1.95;;
9138;SDS011;4604;48.616;9.548;2023-07-31T10:02:40;7.88;;;2.28;;
9138;SDS011;4604;48.616;9.548;2023-07-31T10:05:07;4.85;;;2.20;;
9138;SDS011;4604;48.616;9.548;2023-07-31T10:07:36;7.60;;;2.33;;
9138;SDS011;4604;48.616;9.548;2023-07-31T10:10:05;5.57;;;2.05;;
9138;SDS011;4604;48.616;9.548;2023-07-31T10:12:34;6.30;;;2.45;;
9138;SDS011;4604;48.616;9.548;2023-07-31T10:15:02;3.17;;;2.00;;
9138;SDS011;4604;48.616;9.548;2023-07-31T10:17:31;4.78;;;2.28;;
9138;SDS011;4604;48.616;9.548;2023-07-31T10:19:58;6.05;;;2.20;;
9138;SDS011;4604;48.616;9.548;2023-07-31T10:22:28;3.25;;;2.28;;
9138;SDS011;4604;48.616;9.548;2023-07-31T10:24:57;4.95;;;2.55;;
9138;SDS011;4604;48.616;9.548;2023-07-31T10:27:25;7.50;;;2.47;;
9138;SDS011;4604;48.616;9.548;2023-07-31T10:29:52;5.65;;;2.42;;
9138;SDS011;4604;48.616;9.548;2023-07-31T10:32:20;4.10;;;2.20;;
9138;SDS011;4604;48.616;9.548;2023-07-31T10:34:50;2.15;;;1.85;;
9138;SDS011;4604;48.616;9.548;2023-07-31T10:37:21;3.03;;;2.25;;
9138;SDS011;4604;48.616;9.548;2023-07-31T10:39:55;4.50;;;2.50;;
9138;SDS011;4604;48.616;9.548;2023-07-31T10:42:32;6.40;;;2.42;;
9138;SDS011;4604;48.616;9.548;2023-07-31T10:45:00;3.95;;;2.33;;
9138;SDS011;4604;48.616;9.548;2023-07-31T10:47:29;4.13;;;2.17;;
9138;SDS011;4604;48.616;9.548;2023-07-31T10:52:39;4.05;;;2.55;;
9138;SDS011;4604;48.616;9.548;2023-07-31T10:55:25;4.38;;;2.33;;
9138;SDS011;4604;48.616;9.548;2023-07-31T10:57:53;3.38;;;2.00;;
9138;SDS011;4604;48.616;9.548;2023-07-31T11:00:22;5.53;;;2.17;;
9138;SDS011;4604;48.616;9.548;2023-07-31T11:02:58;2.85;;;2.10;;
9138;SDS011;4604;48.616;9.548;2023-07-31T11:08:10;1.98;;;1.77;;
9138;SDS011;4604;48.616;9.548;2023-07-31T11:10:38;8.48;;;2.30;;
9138;SDS011;4604;48.616;9.548;2023-07-31T11:13:04;4.60;;;2.50;;
9138;SDS011;4604;48.616;9.548;2023-07-31T11:15:31;4.28;;;2.20;;
9138;SDS011;4604;48.616;9.548;2023-07-31T11:17:59;4.15;;;2.85;;
9138;SDS011;4604;48.616;9.548;2023-07-31T11:20:29;3.10;;;2.30;;
9138;SDS011;4604;48.616;9.548;2023-07-31T11:22:59;4.53;;;2.20;;
9138;SDS011;4604;48.616;9.548;2023-07-31T11:25:28;5.03;;;2.28;;
9138;SDS011;4604;48.616;9.548;2023-07-31T11:27:55;3.80;;;2.50;;
9138;SDS011;4604;48.616;9.548;2023-07-31T11:30:22;2.80;;;2.28;;
9138;SDS011;4604;48.616;9.548;2023-07-31T11:32:49;4.28;;;2.30;;
9138;SDS011;4604;48.616;9.548;2023-07-31T11:35:16;3.00;;;2.20;;
9138;SDS011;4604;48.616;9.548;2023-07-31T11:37:43;5.68;;;2.58;;
9138;SDS011;4604;48.616;9.548;2023-07-31T11:40:12;5.05;;;2.40;;
9138;SDS011;4604;48.616;9.548;2023-07-31T11:42:39;2.75;;;1.88;;
9138;SDS011;4604;48.616;9.548;2023-07-31T11:45:06;2.55;;;2.20;;
9138;SDS011;4604;48.616;9.548;2023-07-31T11:47:34;4.20;;;2.30;;
9138;SDS011;4604;48.616;9.548;2023-07-31T11:50:01;2.80;;;2.15;;
9138;SDS011;4604;48.616;9.548;2023-07-31T11:52:29;4.22;;;2.30;;
9138;SDS011;4604;48.616;9.548;2023-07-31T11:55:08;4.22;;;2.15;;
9138;SDS011;4604;48.616;9.548;2023-07-31T11:57:38;3.50;;;2.28;;
9138;SDS011;4604;48.616;9.548;2023-07-31T12:00:07;3.63;;;2.50;;
9138;SDS011;4604;48.616;9.548;2023-07-31T12:02:36;4.20;;;2.47;;
9138;SDS011;4604;48.616;9.548;2023-07-31T12:05:04;4.70;;;2.35;;
9138;SDS011;4604;48.616;9.548;2023-07-31T12:07:42;3.30;;;2.22;;
9138;SDS011;4604;48.616;9.548;2023-07-31T12:10:10;3.83;;;2.38;;
9138;SDS011;4604;48.616;9.548;2023-07-31T12:12:38;5.07;;;2.38;;
9138;SDS011;4604;48.616;9.548;2023-07-31T12:15:13;3.53;;;2.35;;
9138;SDS011;4604;48.616;9.548;2023-07-31T12:17:40;5.72;;;2.60;;
9138;SDS011;4604;48.616;9.548;2023-07-31T12:20:08;3.53;;;2.30;;
9138;SDS011;4604;48.616;9.548;2023-07-31T12:22:35;4.22;;;2.22;;
9138;SDS011;4604;48.616;9.548;2023-07-31T12:25:02;4.20;;;2.55;;
9138;SDS011;4604;48.616;9.548;2023-07-31T12:27:32;4.93;;;2.30;;
9138;SDS011;4604;48.616;9.548;2023-07-31T12:30:01;3.17;;;2.15;;
9138;SDS011;4604;48.616;9.548;2023-07-31T12:32:29;3.70;;;2.35;;
9138;SDS011;4604;48.616;9.548;2023-07-31T12:34:59;4.97;;;2.20;;
9138;SDS011;4604;48.616;9.548;2023-07-31T12:37:26;8.95;;;2.33;;
9138;SDS011;4604;48.616;9.548;2023-07-31T12:39:53;5.15;;;2.40;;
9138;SDS011;4604;48.616;9.548;2023-07-31T12:42:19;5.72;;;2.25;;
9138;SDS011;4604;48.616;9.548;2023-07-31T12:44:46;4.97;;;2.17;;
9138;SDS011;4604;48.616;9.548;2023-07-31T12:47:14;4.28;;;2.33;;
9138;SDS011;4604;48.616;9.548;2023-07-31T12:49:41;4.13;;;2.53;;
9138;SDS011;4604;48.616;9.548;2023-07-31T12:52:07;3.97;;;2.67;;
9138;SDS011;4604;48.616;9.548;2023-07-31T12:54:34;2.13;;;1.90;;
9138;SDS011;4604;48.616;9.548;2023-07-31T12:57:01;3.42;;;2.20;;
9138;SDS011;4604;48.616;9.548;2023-07-31T12:59:28;4.15;;;2.47;;
9138;SDS011;4604;48.616;9.548;2023-07-31T13:01:54;3.50;;;2.30;;
9138;SDS011;4604;48.616;9.548;2023-07-31T13:04:31;6.20;;;2.55;;
9138;SDS011;4604;48.616;9.548;2023-07-31T13:06:58;5.53;;;2.40;;
9138;SDS011;4604;48.616;9.548;2023-07-31T13:09:29;4.63;;;2.30;;
9138;SDS011;4604;48.616;9.548;2023-07-31T13:11:55;5.28;;;2.47;;
9138;SDS011;4604;48.616;9.548;2023-07-31T13:14:22;4.38;;;2.65;;
9138;SDS011;4604;48.616;9.548;2023-07-31T13:16:49;3.85;;;2.55;;
9138;SDS011;4604;48.616;9.548;2023-07-31T13:19:15;10.55;;;2.30;;
9138;SDS011;4604;48.616;9.548;2023-07-31T13:21:43;2.45;;;2.25;;
9138;SDS011;4604;48.616;9.548;2023-07-31T13:24:10;3.88;;;2.75;;
9138;SDS011;4604;48.616;9.548;2023-07-31T13:26:37;4.10;;;2.50;;
9138;SDS011;4604;48.616;9.548;2023-07-31T13:29:03;8.70;;;2.70;;
9138;SDS011;4604;48.616;9.548;2023-07-31T13:31:30;7.05;;;2.70;;
9138;SDS011;4604;48.616;9.548;2023-07-31T13:33:56;3.78;;;2.40;;
9138;SDS011;4604;48.616;9.548;2023-07-31T13:36:23;6.28;;;2.83;;
9138;SDS011;4604;48.616;9.548;2023-07-31T13:38:51;5.85;;;2.80;;
9138;SDS011;4604;48.616;9.548;2023-07-31T13:41:18;4.63;;;2.47;;
9138;SDS011;4604;48.616;9.548;2023-07-31T13:43:45;3.75;;;2.35;;
9138;SDS011;4604;48.616;9.548;2023-07-31T13:46:11;7.97;;;2.83;;
9138;SDS011;4604;48.616;9.548;2023-07-31T13:48:38;4.38;;;2.80;;
9138;SDS011;4604;48.616;9.548;2023-07-31T13:51:04;6.05;;;2.50;;
9138;SDS011;4604;48.616;9.548;2023-07-31T13:53:31;3.97;;;2.50;;
9138;SDS011;4604;48.616;9.548;2023-07-31T13:55:59;4.72;;;2.55;;
9138;SDS011;4604;48.616;9.548;2023-07-31T13:58:26;5.50;;;2.47;;
9138;SDS011;4604;48.616;9.548;2023-07-31T14:00:52;5.07;;;2.80;;
9138;SDS011;4604;48.616;9.548;2023-07-31T14:03:22;5.47;;;2.80;;
9138;SDS011;4604;48.616;9.548;2023-07-31T14:05:48;3.90;;;2.80;;
9138;SDS011;4604;48.616;9.548;2023-07-31T14:08:15;3.85;;;2.42;;
9138;SDS011;4604;48.616;9.548;2023-07-31T14:10:41;2.50;;;2.20;;
9138;SDS011;4604;48.616;9.548;2023-07-31T14:13:09;4.93;;;2.50;;
9138;SDS011;4604;48.616;9.548;2023-07-31T14:15:36;4.07;;;2.65;;
9138;SDS011;4604;48.616;9.548;2023-07-31T14:18:20;3.67;;;2.72;;
9138;SDS011;4604;48.616;9.548;2023-07-31T14:20:49;4.20;;;2.58;;
9138;SDS011;4604;48.616;9.548;2023-07-31T14:23:17;4.28;;;2.78;;
9138;SDS011;4604;48.616;9.548;2023-07-31T14:25:46;7.07;;;2.60;;
9138;SDS011;4604;48.616;9.548;2023-07-31T14:28:14;4.03;;;2.50;;
9138;SDS011;4604;48.616;9.548;2023-07-31T14:30:41;5.38;;;2.88;;
9138;SDS011;4604;48.616;9.548;2023-07-31T14:33:07;7.60;;;2.70;;
9138;SDS011;4604;48.616;9.548;2023-07-31T14:35:34;5.50;;;2.50;;
9138;SDS011;4604;48.616;9.548;2023-07-31T14:38:01;5.03;;;2.78;;
9138;SDS011;4604;48.616;9.548;2023-07-31T14:40:28;6.05;;;2.55;;
9138;SDS011;4604;48.616;9.548;2023-07-31T14:42:54;5.13;;;2.72;;
9138;SDS011;4604;48.616;9.548;2023-07-31T14:45:24;3.95;;;2.70;;
9138;SDS011;4604;48.616;9.548;2023-07-31T14:47:51;5.00;;;2.67;;
9138;SDS011;4604;48.616;9.548;2023-07-31T14:50:19;8.38;;;2.65;;
9138;SDS011;4604;48.616;9.548;2023-07-31T14:52:46;3.30;;;2.63;;
9138;SDS011;4604;48.616;9.548;2023-07-31T14:55:13;4.03;;;2.47;;
9138;SDS011;4604;48.616;9.548;2023-07-31T14:57:39;4.90;;;2.58;;
9138;SDS011;4604;48.616;9.548;2023-07-31T15:00:06;6.38;;;2.60;;
9138;SDS011;4604;48.616;9.548;2023-07-31T15:02:36;3.22;;;2.25;;
9138;SDS011;4604;48.616;9.548;2023-07-31T15:05:03;3.42;;;2.30;;
9138;SDS011;4604;48.616;9.548;2023-07-31T15:07:31;4.05;;;2.47;;
9138;SDS011;4604;48.616;9.548;2023-07-31T15:09:58;5.25;;;2.42;;
9138;SDS011;4604;48.616;9.548;2023-07-31T15:12:25;4.00;;;2.65;;
9138;SDS011;4604;48.616;9.548;2023-07-31T15:14:52;4.70;;;2.67;;
9138;SDS011;4604;48.616;9.548;2023-07-31T15:17:18;4.60;;;2.60;;
9138;SDS011;4604;48.616;9.548;2023-07-31T15:19:46;5.00;;;2.50;;
9138;SDS011;4604;48.616;9.548;2023-07-31T15:22:13;6.63;;;2.72;;
9138;SDS011;4604;48.616;9.548;2023-07-31T15:24:40;3.70;;;2.70;;